sensor_id;sensor_type;location;lat;lon;timestamp;temperature;humidity
15834;DHT22;8017;50.812;4.934;2022-11-24T00:00:21;8.60;99.90
15834;DHT22;8017;50.812;4.934;2022-11-24T00:03:25;8.50;99.90
15834;DHT22;8017;50.812;4.934;2022-11-24T00:06:27;8.50;99.90
15834;DHT22;8017;50.812;4.934;2022-11-24T00:09:29;8.40;99.90
15834;DHT22;8017;50.812;4.934;2022-11-24T00:12:31;8.30;99.90
15834;DHT22;8017;50.812;4.934;2022-11-24T00:15:33;8.40;99.90
15834;DHT22;8017;50.812;4.934;2022-11-24T00:18:37;8.40;99.90
15834;DHT22;8017;50.812;4.934;2022-11-24T00:21:39;8.50;99.90
15834;DHT22;8017;50.812;4.934;2022-11-24T00:24:40;8.50;99.90
15834;DHT22;8017;50.812;4.934;2022-11-24T00:27:42;8.50;99.90
15834;DHT22;8017;50.812;4.934;2022-11-24T00:30:44;8.60;99.90
15834;DHT22;8017;50.812;4.934;2022-11-24T00:33:49;8.60;99.90
15834;DHT22;8017;50.812;4.934;2022-11-24T00:36:50;8.70;99.90
15834;DHT22;8017;50.812;4.934;2022-11-24T00:39:52;8.70;99.90
15834;DHT22;8017;50.812;4.934;2022-11-24T00:42:54;8.70;99.90
15834;DHT22;8017;50.812;4.934;2022-11-24T00:45:56;8.70;99.90
15834;DHT22;8017;50.812;4.934;2022-11-24T00:48:59;8.70;99.90
15834;DHT22;8017;50.812;4.934;2022-11-24T00:52:01;8.70;99.90
15834;DHT22;8017;50.812;4.934;2022-11-24T00:55:04;8.70;99.90
15834;DHT22;8017;50.812;4.934;2022-11-24T00:58:06;8.60;99.90
15834;DHT22;8017;50.812;4.934;2022-11-24T01:01:11;8.60;99.90
15834;DHT22;8017;50.812;4.934;2022-11-24T01:04:14;8.60;99.90
15834;DHT22;8017;50.812;4.934;2022-11-24T01:07:16;8.60;99.90
15834;DHT22;8017;50.812;4.934;2022-11-24T01:10:18;8.60;99.90
15834;DHT22;8017;50.812;4.934;2022-11-24T01:13:20;8.70;99.90
15834;DHT22;8017;50.812;4.934;2022-11-24T01:16:25;8.70;99.90
15834;DHT22;8017;50.812;4.934;2022-11-24T01:19:28;8.60;99.90
15834;DHT22;8017;50.812;4.934;2022-11-24T01:22:30;8.50;99.90
15834;DHT22;8017;50.812;4.934;2022-11-24T01:25:32;8.50;99.90
15834;DHT22;8017;50.812;4.934;2022-11-24T01:28:34;8.60;99.90
15834;DHT22;8017;50.812;4.934;2022-11-24T01:31:36;8.70;99.90
15834;DHT22;8017;50.812;4.934;2022-11-24T01:34:39;8.70;99.90
15834;DHT22;8017;50.812;4.934;2022-11-24T01:37:41;8.80;99.90
15834;DHT22;8017;50.812;4.934;2022-11-24T01:40:43;8.90;99.90
15834;DHT22;8017;50.812;4.934;2022-11-24T01:43:45;8.90;99.90
15834;DHT22;8017;50.812;4.934;2022-11-24T01:46:48;9.00;99.90
15834;DHT22;8017;50.812;4.934;2022-11-24T01:49:55;8.90;99.90
15834;DHT22;8017;50.812;4.934;2022-11-24T01:52:58;8.80;99.90
15834;DHT22;8017;50.812;4.934;2022-11-24T01:56:00;8.80;99.90
15834;DHT22;8017;50.812;4.934;2022-11-24T01:59:04;8.90;99.90
15834;DHT22;8017;50.812;4.934;2022-11-24T02:02:08;8.90;99.90
15834;DHT22;8017;50.812;4.934;2022-11-24T02:05:14;8.80;99.90
15834;DHT22;8017;50.812;4.934;2022-11-24T02:08:21;8.80;99.90
15834;DHT22;8017;50.812;4.934;2022-11-24T02:11:28;8.70;99.90
15834;DHT22;8017;50.812;4.934;2022-11-24T02:14:33;8.70;99.90
15834;DHT22;8017;50.812;4.934;2022-11-24T02:17:35;8.60;99.90
15834;DHT22;8017;50.812;4.934;2022-11-24T02:20:39;8.50;99.90
15834;DHT22;8017;50.812;4.934;2022-11-24T02:23:46;8.40;99.90
15834;DHT22;8017;50.812;4.934;2022-11-24T02:26:50;8.40;99.90
15834;DHT22;8017;50.812;4.934;2022-11-24T02:29:52;8.40;99.90
15834;DHT22;8017;50.812;4.934;2022-11-24T02:32:54;8.40;99.90
15834;DHT22;8017;50.812;4.934;2022-11-24T02:35:56;8.50;99.90
15834;DHT22;8017;50.812;4.934;2022-11-24T02:38:58;8.50;99.90
15834;DHT22;8017;50.812;4.934;2022-11-24T02:42:04;8.50;99.90
15834;DHT22;8017;50.812;4.934;2022-11-24T02:45:09;8.60;99.90
15834;DHT22;8017;50.812;4.934;2022-11-24T02:48:12;8.60;99.90
15834;DHT22;8017;50.812;4.934;2022-11-24T02:51:14;8.60;99.90
15834;DHT22;8017;50.812;4.934;2022-11-24T02:54:16;8.70;99.90
15834;DHT22;8017;50.812;4.934;2022-11-24T02:57:21;8.80;99.90
15834;DHT22;8017;50.812;4.934;2022-11-24T03:00:23;8.90;99.90
15834;DHT22;8017;50.812;4.934;2022-11-24T03:03:26;9.10;99.90
15834;DHT22;8017;50.812;4.934;2022-11-24T03:06:28;9.10;99.90
15834;DHT22;8017;50.812;4.934;2022-11-24T03:09:30;9.10;99.90
15834;DHT22;8017;50.812;4.934;2022-11-24T03:12:33;9.10;99.90
15834;DHT22;8017;50.812;4.934;2022-11-24T03:15:35;9.20;99.90
15834;DHT22;8017;50.812;4.934;2022-11-24T03:18:37;9.30;99.90
15834;DHT22;8017;50.812;4.934;2022-11-24T03:21:39;9.30;99.90
15834;DHT22;8017;50.812;4.934;2022-11-24T03:24:40;9.30;99.90
15834;DHT22;8017;50.812;4.934;2022-11-24T03:27:44;9.20;99.90
15834;DHT22;8017;50.812;4.934;2022-11-24T03:30:47;9.20;99.90
15834;DHT22;8017;50.812;4.934;2022-11-24T03:33:49;9.20;99.90
15834;DHT22;8017;50.812;4.934;2022-11-24T03:36:51;9.20;99.90
15834;DHT22;8017;50.812;4.934;2022-11-24T03:39:53;9.20;99.90
15834;DHT22;8017;50.812;4.934;2022-11-24T03:42:56;9.20;99.90
15834;DHT22;8017;50.812;4.934;2022-11-24T03:45:58;9.10;99.90
15834;DHT22;8017;50.812;4.934;2022-11-24T03:48:59;9.00;99.90
15834;DHT22;8017;50.812;4.934;2022-11-24T03:52:01;9.00;99.90
15834;DHT22;8017;50.812;4.934;2022-11-24T03:55:04;9.00;99.90
15834;DHT22;8017;50.812;4.934;2022-11-24T03:58:07;9.10;99.90
15834;DHT22;8017;50.812;4.934;2022-11-24T04:01:09;9.00;99.90
15834;DHT22;8017;50.812;4.934;2022-11-24T04:04:12;9.00;99.90
15834;DHT22;8017;50.812;4.934;2022-11-24T04:07:14;8.90;99.90
15834;DHT22;8017;50.812;4.934;2022-11-24T04:10:16;8.80;99.90
15834;DHT22;8017;50.812;4.934;2022-11-24T04:13:22;8.80;99.90
15834;DHT22;8017;50.812;4.934;2022-11-24T04:16:23;8.80;99.90
15834;DHT22;8017;50.812;4.934;2022-11-24T04:19:24;8.80;99.90
15834;DHT22;8017;50.812;4.934;2022-11-24T04:22:26;8.70;99.90
15834;DHT22;8017;50.812;4.934;2022-11-24T04:25:28;8.60;99.90
15834;DHT22;8017;50.812;4.934;2022-11-24T04:28:32;8.60;99.90
15834;DHT22;8017;50.812;4.934;2022-11-24T04:31:34;8.50;99.90
15834;DHT22;8017;50.812;4.934;2022-11-24T04:34:36;8.50;99.90
15834;DHT22;8017;50.812;4.934;2022-11-24T04:37:39;8.50;99.90
15834;DHT22;8017;50.812;4.934;2022-11-24T04:40:41;8.50;99.90
15834;DHT22;8017;50.812;4.934;2022-11-24T04:43:44;8.50;99.90
15834;DHT22;8017;50.812;4.934;2022-11-24T04:46:46;8.50;99.90
15834;DHT22;8017;50.812;4.934;2022-11-24T04:49:48;8.40;99.90
15834;DHT22;8017;50.812;4.934;2022-11-24T04:52:50;8.30;99.90
15834;DHT22;8017;50.812;4.934;2022-11-24T04:55:52;8.20;99.90
15834;DHT22;8017;50.812;4.934;2022-11-24T04:58:55;8.10;99.90
15834;DHT22;8017;50.812;4.934;2022-11-24T05:01:57;8.00;99.90
15834;DHT22;8017;50.812;4.934;2022-11-24T05:04:59;7.90;99.90
15834;DHT22;8017;50.812;4.934;2022-11-24T05:08:01;7.80;99.90
15834;DHT22;8017;50.812;4.934;2022-11-24T05:11:03;7.70;99.90
15834;DHT22;8017;50.812;4.934;2022-11-24T05:14:07;7.60;99.90
15834;DHT22;8017;50.812;4.934;2022-11-24T05:17:08;7.60;99.90
15834;DHT22;8017;50.812;4.934;2022-11-24T05:20:10;7.50;99.90
15834;DHT22;8017;50.812;4.934;2022-11-24T05:23:12;7.50;99.90
15834;DHT22;8017;50.812;4.934;2022-11-24T05:26:14;7.40;99.90
15834;DHT22;8017;50.812;4.934;2022-11-24T05:29:17;7.30;99.90
15834;DHT22;8017;50.812;4.934;2022-11-24T05:32:19;7.20;99.90
15834;DHT22;8017;50.812;4.934;2022-11-24T05:35:21;7.10;99.90
15834;DHT22;8017;50.812;4.934;2022-11-24T05:38:23;7.00;99.90
15834;DHT22;8017;50.812;4.934;2022-11-24T05:41:26;7.00;99.90
15834;DHT22;8017;50.812;4.934;2022-11-24T05:44:29;7.00;99.90
15834;DHT22;8017;50.812;4.934;2022-11-24T05:47:31;7.00;99.90
15834;DHT22;8017;50.812;4.934;2022-11-24T05:50:33;7.00;99.90
15834;DHT22;8017;50.812;4.934;2022-11-24T05:53:35;7.00;99.90
15834;DHT22;8017;50.812;4.934;2022-11-24T05:56:37;7.00;99.90
15834;DHT22;8017;50.812;4.934;2022-11-24T05:59:40;6.90;99.90
15834;DHT22;8017;50.812;4.934;2022-11-24T06:02:43;6.90;99.90
15834;DHT22;8017;50.812;4.934;2022-11-24T06:05:45;6.90;99.90
15834;DHT22;8017;50.812;4.934;2022-11-24T06:08:47;6.90;99.90
15834;DHT22;8017;50.812;4.934;2022-11-24T06:11:49;6.90;99.90
15834;DHT22;8017;50.812;4.934;2022-11-24T06:14:52;6.90;99.90
15834;DHT22;8017;50.812;4.934;2022-11-24T06:17:55;6.90;99.90
15834;DHT22;8017;50.812;4.934;2022-11-24T06:20:56;6.90;99.90
15834;DHT22;8017;50.812;4.934;2022-11-24T06:23:58;6.90;99.90
15834;DHT22;8017;50.812;4.934;2022-11-24T06:27:00;6.90;99.90
15834;DHT22;8017;50.812;4.934;2022-11-24T06:30:05;7.00;99.90
15834;DHT22;8017;50.812;4.934;2022-11-24T06:33:07;7.10;99.90
15834;DHT22;8017;50.812;4.934;2022-11-24T06:36:11;7.10;99.90
15834;DHT22;8017;50.812;4.934;2022-11-24T06:39:14;7.10;99.90
15834;DHT22;8017;50.812;4.934;2022-11-24T06:42:16;7.00;99.90
15834;DHT22;8017;50.812;4.934;2022-11-24T06:45:20;7.10;99.90
15834;DHT22;8017;50.812;4.934;2022-11-24T06:48:23;7.10;99.90
15834;DHT22;8017;50.812;4.934;2022-11-24T06:51:25;7.10;99.90
15834;DHT22;8017;50.812;4.934;2022-11-24T06:54:27;7.10;99.90
15834;DHT22;8017;50.812;4.934;2022-11-24T06:57:29;7.10;99.90
15834;DHT22;8017;50.812;4.934;2022-11-24T07:00:33;7.10;99.90
15834;DHT22;8017;50.812;4.934;2022-11-24T07:03:35;7.10;99.90
15834;DHT22;8017;50.812;4.934;2022-11-24T07:06:37;7.10;99.90
15834;DHT22;8017;50.812;4.934;2022-11-24T07:09:40;7.10;99.90
15834;DHT22;8017;50.812;4.934;2022-11-24T07:12:42;7.10;99.90
15834;DHT22;8017;50.812;4.934;2022-11-24T07:15:46;7.10;99.90
15834;DHT22;8017;50.812;4.934;2022-11-24T07:18:49;7.10;99.90
15834;DHT22;8017;50.812;4.934;2022-11-24T07:21:51;7.10;99.90
15834;DHT22;8017;50.812;4.934;2022-11-24T07:24:53;7.10;99.90
15834;DHT22;8017;50.812;4.934;2022-11-24T07:27:56;7.10;99.90
15834;DHT22;8017;50.812;4.934;2022-11-24T07:31:04;7.10;99.90
15834;DHT22;8017;50.812;4.934;2022-11-24T07:34:06;7.10;99.90
15834;DHT22;8017;50.812;4.934;2022-11-24T07:37:08;7.10;99.90
15834;DHT22;8017;50.812;4.934;2022-11-24T07:40:10;7.20;99.90
15834;DHT22;8017;50.812;4.934;2022-11-24T07:43:12;7.10;99.90
15834;DHT22;8017;50.812;4.934;2022-11-24T07:46:17;7.10;99.90
15834;DHT22;8017;50.812;4.934;2022-11-24T07:49:20;7.10;99.90
15834;DHT22;8017;50.812;4.934;2022-11-24T07:52:23;7.20;99.90
15834;DHT22;8017;50.812;4.934;2022-11-24T07:55:26;7.20;99.90
15834;DHT22;8017;50.812;4.934;2022-11-24T07:58:29;7.20;99.90
15834;DHT22;8017;50.812;4.934;2022-11-24T08:01:32;7.20;99.90
15834;DHT22;8017;50.812;4.934;2022-11-24T08:04:35;7.20;99.90
15834;DHT22;8017;50.812;4.934;2022-11-24T08:07:37;7.30;99.90
15834;DHT22;8017;50.812;4.934;2022-11-24T08:10:39;7.30;99.90
15834;DHT22;8017;50.812;4.934;2022-11-24T08:13:42;7.30;99.90
15834;DHT22;8017;50.812;4.934;2022-11-24T08:16:45;7.40;99.90
15834;DHT22;8017;50.812;4.934;2022-11-24T08:19:47;7.40;99.90
15834;DHT22;8017;50.812;4.934;2022-11-24T08:22:49;7.40;99.90
15834;DHT22;8017;50.812;4.934;2022-11-24T08:25:50;7.50;99.90
15834;DHT22;8017;50.812;4.934;2022-11-24T08:28:56;7.50;99.90
15834;DHT22;8017;50.812;4.934;2022-11-24T08:31:59;7.50;99.90
15834;DHT22;8017;50.812;4.934;2022-11-24T08:35:01;7.60;99.90
15834;DHT22;8017;50.812;4.934;2022-11-24T08:38:03;7.60;99.90
15834;DHT22;8017;50.812;4.934;2022-11-24T08:41:07;7.60;99.90
15834;DHT22;8017;50.812;4.934;2022-11-24T08:44:09;7.70;99.90
15834;DHT22;8017;50.812;4.934;2022-11-24T08:47:15;7.80;99.90
15834;DHT22;8017;50.812;4.934;2022-11-24T08:50:17;7.90;99.90
15834;DHT22;8017;50.812;4.934;2022-11-24T08:53:19;8.00;99.90
15834;DHT22;8017;50.812;4.934;2022-11-24T08:56:21;8.00;99.90
15834;DHT22;8017;50.812;4.934;2022-11-24T08:59:23;8.10;99.90
15834;DHT22;8017;50.812;4.934;2022-11-24T09:02:26;8.20;99.90
15834;DHT22;8017;50.812;4.934;2022-11-24T09:05:28;8.20;99.90
15834;DHT22;8017;50.812;4.934;2022-11-24T09:08:31;8.20;99.90
15834;DHT22;8017;50.812;4.934;2022-11-24T09:11:33;8.30;99.90
15834;DHT22;8017;50.812;4.934;2022-11-24T09:14:35;8.30;99.90
15834;DHT22;8017;50.812;4.934;2022-11-24T09:17:38;8.40;99.90
15834;DHT22;8017;50.812;4.934;2022-11-24T09:20:40;8.50;99.90
15834;DHT22;8017;50.812;4.934;2022-11-24T09:23:43;8.50;99.90
15834;DHT22;8017;50.812;4.934;2022-11-24T09:26:45;8.60;99.90
15834;DHT22;8017;50.812;4.934;2022-11-24T09:29:47;8.60;99.90
15834;DHT22;8017;50.812;4.934;2022-11-24T09:32:50;8.70;99.90
15834;DHT22;8017;50.812;4.934;2022-11-24T09:35:52;8.70;99.90
15834;DHT22;8017;50.812;4.934;2022-11-24T09:38:54;8.70;99.90
15834;DHT22;8017;50.812;4.934;2022-11-24T09:42:12;8.80;99.90
15834;DHT22;8017;50.812;4.934;2022-11-24T09:45:24;8.90;99.90
15834;DHT22;8017;50.812;4.934;2022-11-24T09:48:32;9.00;99.90
15834;DHT22;8017;50.812;4.934;2022-11-24T09:51:37;9.10;99.90
15834;DHT22;8017;50.812;4.934;2022-11-24T09:54:44;9.10;99.90
15834;DHT22;8017;50.812;4.934;2022-11-24T09:57:53;9.10;99.90
15834;DHT22;8017;50.812;4.934;2022-11-24T10:00:58;9.20;99.90
15834;DHT22;8017;50.812;4.934;2022-11-24T10:04:01;9.30;99.90
15834;DHT22;8017;50.812;4.934;2022-11-24T10:07:08;9.30;99.90
15834;DHT22;8017;50.812;4.934;2022-11-24T10:10:16;9.40;99.90
15834;DHT22;8017;50.812;4.934;2022-11-24T10:13:34;9.40;99.90
15834;DHT22;8017;50.812;4.934;2022-11-24T10:16:48;9.50;99.90
15834;DHT22;8017;50.812;4.934;2022-11-24T10:19:56;9.50;99.90
15834;DHT22;8017;50.812;4.934;2022-11-24T10:23:17;9.50;99.90
15834;DHT22;8017;50.812;4.934;2022-11-24T10:26:30;9.50;99.90
15834;DHT22;8017;50.812;4.934;2022-11-24T10:29:36;9.50;99.90
15834;DHT22;8017;50.812;4.934;2022-11-24T10:32:43;9.60;99.90
15834;DHT22;8017;50.812;4.934;2022-11-24T10:35:51;9.70;99.90
15834;DHT22;8017;50.812;4.934;2022-11-24T10:38:59;9.80;99.90
15834;DHT22;8017;50.812;4.934;2022-11-24T10:42:05;9.90;99.90
15834;DHT22;8017;50.812;4.934;2022-11-24T10:45:10;9.90;99.90
15834;DHT22;8017;50.812;4.934;2022-11-24T10:48:17;10.00;99.90
15834;DHT22;8017;50.812;4.934;2022-11-24T10:51:35;10.00;99.90
15834;DHT22;8017;50.812;4.934;2022-11-24T10:54:53;10.10;99.90
15834;DHT22;8017;50.812;4.934;2022-11-24T10:58:13;10.10;99.90
15834;DHT22;8017;50.812;4.934;2022-11-24T11:01:23;10.20;99.90
15834;DHT22;8017;50.812;4.934;2022-11-24T11:04:29;10.20;99.90
15834;DHT22;8017;50.812;4.934;2022-11-24T11:07:32;10.30;99.90
15834;DHT22;8017;50.812;4.934;2022-11-24T11:10:34;10.30;99.90
15834;DHT22;8017;50.812;4.934;2022-11-24T11:13:36;10.30;99.90
15834;DHT22;8017;50.812;4.934;2022-11-24T11:16:40;10.30;99.90
15834;DHT22;8017;50.812;4.934;2022-11-24T11:19:43;10.30;99.90
15834;DHT22;8017;50.812;4.934;2022-11-24T11:22:49;10.50;99.90
15834;DHT22;8017;50.812;4.934;2022-11-24T11:26:18;10.60;99.90
15834;DHT22;8017;50.812;4.934;2022-11-24T11:29:21;10.60;99.90
15834;DHT22;8017;50.812;4.934;2022-11-24T11:32:26;10.60;99.90
15834;DHT22;8017;50.812;4.934;2022-11-24T11:35:31;10.70;99.90
15834;DHT22;8017;50.812;4.934;2022-11-24T11:38:38;10.70;99.90
15834;DHT22;8017;50.812;4.934;2022-11-24T11:41:44;10.60;99.90
15834;DHT22;8017;50.812;4.934;2022-11-24T11:44:51;10.70;99.90
15834;DHT22;8017;50.812;4.934;2022-11-24T11:48:01;10.70;99.90
15834;DHT22;8017;50.812;4.934;2022-11-24T11:51:26;10.80;99.90
15834;DHT22;8017;50.812;4.934;2022-11-24T11:54:48;10.80;99.90
15834;DHT22;8017;50.812;4.934;2022-11-24T11:57:56;10.90;99.90
15834;DHT22;8017;50.812;4.934;2022-11-24T12:01:08;11.00;99.90
15834;DHT22;8017;50.812;4.934;2022-11-24T12:04:18;11.00;99.90
15834;DHT22;8017;50.812;4.934;2022-11-24T12:07:41;11.00;99.90
15834;DHT22;8017;50.812;4.934;2022-11-24T12:10:52;11.10;99.90
15834;DHT22;8017;50.812;4.934;2022-11-24T12:14:11;11.10;99.90
15834;DHT22;8017;50.812;4.934;2022-11-24T12:17:20;11.20;99.90
15834;DHT22;8017;50.812;4.934;2022-11-24T12:20:40;11.10;99.90
15834;DHT22;8017;50.812;4.934;2022-11-24T12:23:53;11.20;99.90
15834;DHT22;8017;50.812;4.934;2022-11-24T12:27:03;11.20;99.90
15834;DHT22;8017;50.812;4.934;2022-11-24T12:30:10;11.20;99.90
15834;DHT22;8017;50.812;4.934;2022-11-24T12:33:28;11.30;99.90
15834;DHT22;8017;50.812;4.934;2022-11-24T12:36:48;11.30;99.90
15834;DHT22;8017;50.812;4.934;2022-11-24T12:39:59;11.40;99.90
15834;DHT22;8017;50.812;4.934;2022-11-24T12:43:10;11.40;99.90
15834;DHT22;8017;50.812;4.934;2022-11-24T12:46:18;11.40;99.90
15834;DHT22;8017;50.812;4.934;2022-11-24T12:49:26;11.40;99.90
15834;DHT22;8017;50.812;4.934;2022-11-24T12:52:34;11.40;99.90
15834;DHT22;8017;50.812;4.934;2022-11-24T12:55:37;11.40;99.90
15834;DHT22;8017;50.812;4.934;2022-11-24T12:58:46;11.30;99.90
15834;DHT22;8017;50.812;4.934;2022-11-24T13:02:00;11.20;99.90
15834;DHT22;8017;50.812;4.934;2022-11-24T13:05:17;11.30;99.90
15834;DHT22;8017;50.812;4.934;2022-11-24T13:08:21;11.40;99.90
15834;DHT22;8017;50.812;4.934;2022-11-24T13:11:39;11.40;99.90
15834;DHT22;8017;50.812;4.934;2022-11-24T13:14:48;11.40;99.90
15834;DHT22;8017;50.812;4.934;2022-11-24T13:17:51;11.50;99.90
15834;DHT22;8017;50.812;4.934;2022-11-24T13:20:53;11.50;99.90
15834;DHT22;8017;50.812;4.934;2022-11-24T13:23:56;11.50;99.90
15834;DHT22;8017;50.812;4.934;2022-11-24T13:27:21;11.50;99.90
15834;DHT22;8017;50.812;4.934;2022-11-24T13:31:06;11.40;99.90
15834;DHT22;8017;50.812;4.934;2022-11-24T13:37:49;11.30;99.90
15834;DHT22;8017;50.812;4.934;2022-11-24T13:40:52;11.20;99.90
15834;DHT22;8017;50.812;4.934;2022-11-24T13:44:24;11.20;99.90
15834;DHT22;8017;50.812;4.934;2022-11-24T13:47:42;11.30;99.90
15834;DHT22;8017;50.812;4.934;2022-11-24T13:51:19;11.20;99.90
15834;DHT22;8017;50.812;4.934;2022-11-24T13:54:24;11.20;99.90
15834;DHT22;8017;50.812;4.934;2022-11-24T13:57:34;11.10;99.90
15834;DHT22;8017;50.812;4.934;2022-11-24T14:01:10;11.10;99.90
15834;DHT22;8017;50.812;4.934;2022-11-24T14:04:20;10.90;99.90
15834;DHT22;8017;50.812;4.934;2022-11-24T14:07:23;10.90;99.90
15834;DHT22;8017;50.812;4.934;2022-11-24T14:10:31;10.90;99.90
15834;DHT22;8017;50.812;4.934;2022-11-24T14:13:33;10.80;99.90
15834;DHT22;8017;50.812;4.934;2022-11-24T14:16:35;10.80;99.90
15834;DHT22;8017;50.812;4.934;2022-11-24T14:19:38;10.80;99.90
15834;DHT22;8017;50.812;4.934;2022-11-24T14:22:40;10.70;99.90
15834;DHT22;8017;50.812;4.934;2022-11-24T14:25:47;10.70;99.90
15834;DHT22;8017;50.812;4.934;2022-11-24T14:28:49;10.70;99.90
15834;DHT22;8017;50.812;4.934;2022-11-24T14:31:53;10.70;99.90
15834;DHT22;8017;50.812;4.934;2022-11-24T14:34:56;10.80;99.90
15834;DHT22;8017;50.812;4.934;2022-11-24T14:37:59;10.70;99.90
15834;DHT22;8017;50.812;4.934;2022-11-24T14:41:17;10.60;99.90
15834;DHT22;8017;50.812;4.934;2022-11-24T14:44:25;10.40;99.90
15834;DHT22;8017;50.812;4.934;2022-11-24T14:47:29;10.30;99.90
15834;DHT22;8017;50.812;4.934;2022-11-24T14:50:32;10.40;99.90
15834;DHT22;8017;50.812;4.934;2022-11-24T14:53:34;10.40;99.90
15834;DHT22;8017;50.812;4.934;2022-11-24T14:56:38;10.30;99.90
15834;DHT22;8017;50.812;4.934;2022-11-24T14:59:40;10.30;99.90
15834;DHT22;8017;50.812;4.934;2022-11-24T15:02:43;10.20;99.90
15834;DHT22;8017;50.812;4.934;2022-11-24T15:05:53;10.20;99.90
15834;DHT22;8017;50.812;4.934;2022-11-24T15:08:55;10.20;99.90
15834;DHT22;8017;50.812;4.934;2022-11-24T15:12:03;10.20;99.90
15834;DHT22;8017;50.812;4.934;2022-11-24T15:15:15;10.10;99.90
15834;DHT22;8017;50.812;4.934;2022-11-24T15:18:24;10.00;99.90
15834;DHT22;8017;50.812;4.934;2022-11-24T15:21:34;9.90;99.90
15834;DHT22;8017;50.812;4.934;2022-11-24T15:24:48;9.80;99.90
15834;DHT22;8017;50.812;4.934;2022-11-24T15:27:50;9.70;99.90
15834;DHT22;8017;50.812;4.934;2022-11-24T15:30:52;9.70;99.90
15834;DHT22;8017;50.812;4.934;2022-11-24T15:33:54;9.70;99.90
15834;DHT22;8017;50.812;4.934;2022-11-24T15:36:58;9.60;99.90
15834;DHT22;8017;50.812;4.934;2022-11-24T15:40:00;9.50;99.90
15834;DHT22;8017;50.812;4.934;2022-11-24T15:43:02;9.40;99.90
15834;DHT22;8017;50.812;4.934;2022-11-24T15:46:13;9.40;99.90
15834;DHT22;8017;50.812;4.934;2022-11-24T15:49:15;9.30;99.90
15834;DHT22;8017;50.812;4.934;2022-11-24T15:52:18;9.30;99.90
15834;DHT22;8017;50.812;4.934;2022-11-24T15:55:21;9.40;99.90
15834;DHT22;8017;50.812;4.934;2022-11-24T15:58:23;9.40;99.90
15834;DHT22;8017;50.812;4.934;2022-11-24T16:01:28;9.30;99.90
15834;DHT22;8017;50.812;4.934;2022-11-24T16:04:31;9.30;99.90
15834;DHT22;8017;50.812;4.934;2022-11-24T16:07:34;9.30;99.90
15834;DHT22;8017;50.812;4.934;2022-11-24T16:10:36;9.30;99.90
15834;DHT22;8017;50.812;4.934;2022-11-24T16:13:38;9.20;99.90
15834;DHT22;8017;50.812;4.934;2022-11-24T16:16:40;9.10;99.90
15834;DHT22;8017;50.812;4.934;2022-11-24T16:19:42;9.10;99.90
15834;DHT22;8017;50.812;4.934;2022-11-24T16:22:46;9.00;99.90
15834;DHT22;8017;50.812;4.934;2022-11-24T16:25:48;9.10;99.90
15834;DHT22;8017;50.812;4.934;2022-11-24T16:28:50;9.00;99.90
15834;DHT22;8017;50.812;4.934;2022-11-24T16:31:52;9.00;99.90
15834;DHT22;8017;50.812;4.934;2022-11-24T16:34:53;9.00;99.90
15834;DHT22;8017;50.812;4.934;2022-11-24T16:37:57;8.90;99.90
15834;DHT22;8017;50.812;4.934;2022-11-24T16:40:59;8.80;99.90
15834;DHT22;8017;50.812;4.934;2022-11-24T16:44:00;8.80;99.90
15834;DHT22;8017;50.812;4.934;2022-11-24T16:47:02;8.80;99.90
15834;DHT22;8017;50.812;4.934;2022-11-24T16:50:06;8.80;99.90
15834;DHT22;8017;50.812;4.934;2022-11-24T16:53:09;8.70;99.90
15834;DHT22;8017;50.812;4.934;2022-11-24T16:56:12;8.70;99.90
15834;DHT22;8017;50.812;4.934;2022-11-24T16:59:14;8.70;99.90
15834;DHT22;8017;50.812;4.934;2022-11-24T17:02:16;8.80;99.90
15834;DHT22;8017;50.812;4.934;2022-11-24T17:05:18;8.70;99.90
15834;DHT22;8017;50.812;4.934;2022-11-24T17:08:21;8.70;99.90
15834;DHT22;8017;50.812;4.934;2022-11-24T17:11:25;8.70;99.90
15834;DHT22;8017;50.812;4.934;2022-11-24T17:14:27;8.70;99.90
15834;DHT22;8017;50.812;4.934;2022-11-24T17:17:29;8.60;99.90
15834;DHT22;8017;50.812;4.934;2022-11-24T17:20:31;8.60;99.90
15834;DHT22;8017;50.812;4.934;2022-11-24T17:23:37;8.40;99.90
15834;DHT22;8017;50.812;4.934;2022-11-24T17:26:39;8.40;99.90
15834;DHT22;8017;50.812;4.934;2022-11-24T17:29:41;8.40;99.90
15834;DHT22;8017;50.812;4.934;2022-11-24T17:32:43;8.40;99.90
15834;DHT22;8017;50.812;4.934;2022-11-24T17:35:45;8.30;99.90
15834;DHT22;8017;50.812;4.934;2022-11-24T17:38:48;8.30;99.90
15834;DHT22;8017;50.812;4.934;2022-11-24T17:41:50;8.30;99.90
15834;DHT22;8017;50.812;4.934;2022-11-24T17:44:52;8.30;99.90
15834;DHT22;8017;50.812;4.934;2022-11-24T17:47:54;8.30;99.90
15834;DHT22;8017;50.812;4.934;2022-11-24T17:51:00;8.20;99.90
15834;DHT22;8017;50.812;4.934;2022-11-24T17:54:04;8.10;99.90
15834;DHT22;8017;50.812;4.934;2022-11-24T17:57:06;8.10;99.90
15834;DHT22;8017;50.812;4.934;2022-11-24T18:00:09;8.20;99.90
15834;DHT22;8017;50.812;4.934;2022-11-24T18:03:11;8.20;99.90
15834;DHT22;8017;50.812;4.934;2022-11-24T18:06:13;8.30;99.90
15834;DHT22;8017;50.812;4.934;2022-11-24T18:09:17;8.20;99.90
15834;DHT22;8017;50.812;4.934;2022-11-24T18:12:19;8.10;99.90
15834;DHT22;8017;50.812;4.934;2022-11-24T18:15:21;8.10;99.90
15834;DHT22;8017;50.812;4.934;2022-11-24T18:18:23;8.10;99.90
15834;DHT22;8017;50.812;4.934;2022-11-24T18:21:25;8.00;99.90
15834;DHT22;8017;50.812;4.934;2022-11-24T18:24:28;8.00;99.90
15834;DHT22;8017;50.812;4.934;2022-11-24T18:27:30;8.00;99.90
15834;DHT22;8017;50.812;4.934;2022-11-24T18:30:32;8.10;99.90
15834;DHT22;8017;50.812;4.934;2022-11-24T18:33:36;8.00;99.90
15834;DHT22;8017;50.812;4.934;2022-11-24T18:36:37;8.00;99.90
15834;DHT22;8017;50.812;4.934;2022-11-24T18:39:41;8.00;99.90
15834;DHT22;8017;50.812;4.934;2022-11-24T18:42:43;7.80;99.90
15834;DHT22;8017;50.812;4.934;2022-11-24T18:45:45;7.80;99.90
15834;DHT22;8017;50.812;4.934;2022-11-24T18:48:47;7.80;99.90
15834;DHT22;8017;50.812;4.934;2022-11-24T18:51:51;7.90;99.90
15834;DHT22;8017;50.812;4.934;2022-11-24T18:54:54;7.90;99.90
15834;DHT22;8017;50.812;4.934;2022-11-24T18:57:57;7.80;99.90
15834;DHT22;8017;50.812;4.934;2022-11-24T19:01:05;7.90;99.90
15834;DHT22;8017;50.812;4.934;2022-11-24T19:04:08;8.00;99.90
15834;DHT22;8017;50.812;4.934;2022-11-24T19:07:12;8.10;99.90
15834;DHT22;8017;50.812;4.934;2022-11-24T19:10:17;8.20;99.90
15834;DHT22;8017;50.812;4.934;2022-11-24T19:13:19;8.20;99.90
15834;DHT22;8017;50.812;4.934;2022-11-24T19:16:22;8.10;99.90
15834;DHT22;8017;50.812;4.934;2022-11-24T19:19:24;8.10;99.90
15834;DHT22;8017;50.812;4.934;2022-11-24T19:22:28;8.10;99.90
15834;DHT22;8017;50.812;4.934;2022-11-24T19:25:31;8.20;99.90
15834;DHT22;8017;50.812;4.934;2022-11-24T19:28:33;8.20;99.90
15834;DHT22;8017;50.812;4.934;2022-11-24T19:31:36;8.30;99.90
15834;DHT22;8017;50.812;4.934;2022-11-24T19:34:38;8.30;99.90
15834;DHT22;8017;50.812;4.934;2022-11-24T19:37:40;8.30;99.90
15834;DHT22;8017;50.812;4.934;2022-11-24T19:40:44;8.30;99.90
15834;DHT22;8017;50.812;4.934;2022-11-24T19:43:46;8.40;99.90
15834;DHT22;8017;50.812;4.934;2022-11-24T19:46:48;8.40;99.90
15834;DHT22;8017;50.812;4.934;2022-11-24T19:49:50;8.50;99.90
15834;DHT22;8017;50.812;4.934;2022-11-24T19:52:52;8.50;99.90
15834;DHT22;8017;50.812;4.934;2022-11-24T19:56:02;8.50;99.90
15834;DHT22;8017;50.812;4.934;2022-11-24T19:59:04;8.60;99.90
15834;DHT22;8017;50.812;4.934;2022-11-24T20:02:07;8.50;99.90